Change the Weather History Date:

Monday, October 29, 2012

  Actual Average Record
Temperature  
Mean Temperature 36 °F -  
Max Temperature 50 °F 46 °F 69 °F (2004)
Min Temperature 21 °F 31 °F 21 °F (2008)
Degree Days  
Heating Degree Days 30    
Moisture  
Dew Point 22 °F    
Average Humidity 67    
Maximum Humidity 100    
Minimum Humidity 28    
Precipitation  
Precipitation 0.00 in - - ()
Sea Level Pressure  
Sea Level Pressure 30.32 in    
Wind  
Wind Speed 1 mph (NNE)    
Max Wind Speed 7 mph    
Max Gust Speed -    
Visibility 10 miles    
Events      
Averages and records for this station are not official NWS values.
T = Trace of Precipitation, MM = Missing Value Source: NWS Daily Summary

Daily Weather History Graph

Daily Weather History Graph

Search for Another Location

Airport or City:

Trip Planner

Search our weather history database for the weather conditions in past years. The results will help you decide how hot, cold, wet, or windy it might be!

Date:

Astronomy

Oct. 29, 2012 Rise Set
Actual Time 7:38 AM CDT 5:51 PM CDT
Civil Twilight 7:07 AM CDT 6:22 PM CDT
Nautical Twilight 6:32 AM CDT 6:57 PM CDT
Astronomical Twilight 5:57 AM CDT 7:32 PM CDT
Moon 5:41 PM CDT (10/29) 7:30 AM CDT (10/29)
Length of Visible Light 11h 15m
Length of Day
10h 13m
Full, 100% of the Moon is Illuminated
Oct 29
Full
Oct 29
Full
Nov 6
Last Quarter
Nov 13
New
Nov 20
First Quarter

Hourly Weather History & Observations

Time (CDT) Temp. Windchill Dew Point Humidity Pressure Visibility Wind Dir Wind Speed Gust Speed Precip Events Conditions
12:15 AM 26.6 °F - 23.0 °F 86% 30.33 in 10.0 mi Calm Calm - N/A   Clear
12:35 AM 26.6 °F - 23.0 °F 86% 30.33 in 10.0 mi Calm Calm - N/A   Clear
12:55 AM 24.8 °F - 21.2 °F 86% 30.34 in 10.0 mi Calm Calm - N/A   Clear
1:15 AM 24.8 °F - 21.2 °F 86% 30.34 in 10.0 mi Calm Calm - N/A   Clear
1:35 AM 24.8 °F - 23.0 °F 93% 30.33 in 10.0 mi Calm Calm - N/A   Clear
1:55 AM 24.8 °F - 23.0 °F 93% 30.33 in 10.0 mi Calm Calm - N/A   Clear
2:15 AM 23.0 °F - 21.2 °F 93% 30.33 in 10.0 mi Calm Calm - N/A   Unknown
2:35 AM 24.8 °F - 21.2 °F 86% 30.34 in 10.0 mi Calm Calm - N/A   Unknown
2:55 AM 23.0 °F - 21.2 °F 93% 30.34 in 10.0 mi Calm Calm - N/A   Unknown
3:15 AM 24.8 °F - 21.2 °F 86% 30.35 in 10.0 mi Calm Calm - N/A   Unknown
3:35 AM 24.8 °F - 21.2 °F 86% 30.35 in 10.0 mi Calm Calm - N/A   Unknown
3:55 AM 24.8 °F - 21.2 °F 86% 30.34 in 10.0 mi Calm Calm - N/A   Unknown
4:15 AM 21.2 °F - 21.2 °F 100% 30.35 in 10.0 mi Calm Calm - N/A   Unknown
4:35 AM 23.0 °F - 21.2 °F 93% 30.35 in 10.0 mi Calm Calm - N/A   Unknown
4:55 AM 21.2 °F - 21.2 °F 100% 30.35 in 10.0 mi Calm Calm - N/A   Unknown
5:15 AM 21.2 °F - 21.2 °F 100% 30.35 in 10.0 mi Calm Calm - N/A   Unknown
5:55 AM 21.2 °F - 19.4 °F 93% 30.35 in 10.0 mi Calm Calm - N/A   Unknown
6:15 AM 23.0 °F - 21.2 °F 93% 30.35 in 10.0 mi Calm Calm - N/A   Unknown
6:35 AM 21.2 °F - 19.4 °F 93% 30.35 in 10.0 mi Calm Calm - N/A   Unknown
6:55 AM 21.2 °F - 21.2 °F 100% 30.35 in 10.0 mi Calm Calm - N/A   Unknown
7:15 AM 23.0 °F - 21.2 °F 93% 30.36 in 10.0 mi Calm Calm - N/A   Unknown
7:35 AM 23.0 °F - 21.2 °F 93% 30.36 in 10.0 mi Calm Calm - N/A   Unknown
7:55 AM 21.2 °F - 19.4 °F 93% 30.37 in 10.0 mi Calm Calm - N/A   Unknown
8:15 AM 24.8 °F - 21.2 °F 86% 30.37 in 10.0 mi Calm Calm - N/A   Unknown
8:35 AM 26.6 °F - 23.0 °F 86% 30.37 in 10.0 mi Calm Calm - N/A   Unknown
8:55 AM 28.4 °F - 24.8 °F 86% 30.37 in 10.0 mi Calm Calm - N/A   Unknown
9:35 AM 33.8 °F - 26.6 °F 75% 30.37 in 10.0 mi Calm Calm - N/A   Clear
9:55 AM 35.6 °F - 26.6 °F 70% 30.37 in 10.0 mi Calm Calm - N/A   Clear
10:15 AM 37.4 °F - 26.6 °F 65% 30.36 in 10.0 mi Calm Calm - N/A   Clear
10:35 AM 39.2 °F - 26.6 °F 61% 30.36 in 10.0 mi Calm Calm - N/A   Clear
10:55 AM 42.8 °F - 24.8 °F 49% 30.36 in 10.0 mi Calm Calm - N/A   Clear
11:15 AM 42.8 °F - 21.2 °F 42% 30.35 in 10.0 mi Calm Calm - N/A   Clear
11:35 AM 44.6 °F - 19.4 °F 37% 30.35 in 10.0 mi Calm Calm - N/A   Clear
11:55 AM 44.6 °F - 19.4 °F 37% 30.35 in 10.0 mi Calm Calm - N/A   Clear
12:15 PM 46.4 °F - 19.4 °F 34% 30.34 in 10.0 mi Calm Calm - N/A   Clear
12:55 PM 46.4 °F 44.3 °F 19.4 °F 34% 30.33 in 10.0 mi South 4.6 mph - N/A   Clear
1:15 PM 46.4 °F 44.3 °F 19.4 °F 34% 30.32 in 10.0 mi SSE 4.6 mph - N/A   Clear
1:35 PM 48.2 °F - 19.4 °F 32% 30.32 in 10.0 mi SW 4.6 mph - N/A   Clear
1:55 PM 48.2 °F - 19.4 °F 32% 30.31 in 10.0 mi Calm Calm - N/A   Clear
2:15 PM 48.2 °F - 19.4 °F 32% 30.31 in 10.0 mi Calm Calm - N/A   Clear
2:35 PM 48.2 °F - 19.4 °F 32% 30.31 in 10.0 mi NW 3.5 mph - N/A   Clear
3:15 PM 48.2 °F - 19.4 °F 32% 30.30 in 10.0 mi NNW 4.6 mph - N/A   Clear
3:35 PM 50.0 °F - 17.6 °F 28% 30.30 in 10.0 mi Calm Calm - N/A   Clear
3:55 PM 48.2 °F - 17.6 °F 30% 30.30 in 10.0 mi Calm Calm - N/A   Clear
4:15 PM 48.2 °F - 19.4 °F 32% 30.29 in 10.0 mi NE 4.6 mph - N/A   Clear
4:35 PM 48.2 °F - 19.4 °F 32% 30.29 in 10.0 mi Calm Calm - N/A   Clear
4:55 PM 48.2 °F - 19.4 °F 32% 30.29 in 10.0 mi NNE 5.8 mph - N/A   Clear
5:15 PM 48.2 °F - 19.4 °F 32% 30.29 in 10.0 mi Calm Calm - N/A   Clear
5:35 PM 46.4 °F - 19.4 °F 34% 30.29 in 10.0 mi Calm Calm - N/A   Clear
5:55 PM 44.6 °F 42.2 °F 21.2 °F 39% 30.29 in 10.0 mi NNE 4.6 mph - N/A   Clear
6:15 PM 42.8 °F 41.1 °F 21.2 °F 42% 30.29 in 10.0 mi NE 3.5 mph - N/A   Clear
6:35 PM 39.2 °F - 23.0 °F 52% 30.29 in 10.0 mi Calm Calm - N/A   Clear
6:55 PM 37.4 °F - 24.8 °F 60% 30.29 in 10.0 mi Calm Calm - N/A   Clear
7:15 PM 33.8 °F - 24.8 °F 70% 30.29 in 10.0 mi Calm Calm - N/A   Clear
7:35 PM 35.6 °F - 26.6 °F 70% 30.29 in 10.0 mi Calm Calm - N/A   Clear
7:55 PM 32.0 °F 26.4 °F 26.6 °F 80% 30.28 in 10.0 mi NE 5.8 mph - N/A   Clear
10:35 PM 33.8 °F 28.6 °F 26.6 °F 75% 30.26 in 10.0 mi NE 5.8 mph - N/A   Clear
10:55 PM 33.8 °F 27.7 °F 26.6 °F 75% 30.25 in 10.0 mi NE 6.9 mph - N/A   Clear
11:15 PM 33.8 °F 28.6 °F 26.6 °F 75% 30.25 in 10.0 mi NNE 5.8 mph - N/A   Clear
11:35 PM 32.0 °F 27.5 °F 26.6 °F 80% 30.25 in 10.0 mi NE 4.6 mph - N/A   Clear
11:55 PM 32.0 °F 26.4 °F 26.6 °F 80% 30.25 in 10.0 mi NE 5.8 mph - N/A   Clear